Time;durP1;ratioP1;P1;durP2;ratioP2;P2;SDS_P1;SDS_P2;PMS_P1;PMS_P2;Temp;Humidity;BMP_temperature;BMP_pressure;BME280_temperature;BME280_humidity;BME280_pressure;Samples;Min_cycle;Max_cycle;Signal;HPM_P1;HPM_P2
2020/12/15 00:00:46;;;;;;;8.48;2.53;;;8.20;80.60;;;;;;5029866;28;20123;-66
2020/12/15 00:03:13;;;;;;;4.25;2.20;;;8.20;81.00;;;;;;5029230;28;20494;-66
2020/12/15 00:05:39;;;;;;;6.30;2.28;;;8.10;81.80;;;;;;5028929;28;20432;-66
2020/12/15 00:08:06;;;;;;;6.57;2.70;;;7.90;83.40;;;;;;5027728;28;20050;-66
2020/12/15 00:10:41;;;;;;;6.82;2.58;;;7.80;84.90;;;;;;5022990;28;20049;-66
2020/12/15 00:13:10;;;;;;;6.63;2.08;;;7.70;86.20;;;;;;5023094;28;20052;-66
2020/12/15 00:15:38;;;;;;;7.55;3.22;;;7.60;87.40;;;;;;5028303;28;20056;-66
2020/12/15 00:18:05;;;;;;;10.18;2.80;;;7.50;88.70;;;;;;5029800;28;20145;-67
2020/12/15 00:20:32;;;;;;;7.20;2.97;;;7.40;89.10;;;;;;5029674;28;20107;-67
2020/12/15 00:22:59;;;;;;;8.57;3.00;;;7.30;90.30;;;;;;5022661;28;20045;-66
2020/12/15 00:25:25;;;;;;;5.90;2.25;;;7.20;90.30;;;;;;5026097;28;20525;-66
2020/12/15 00:27:52;;;;;;;7.63;2.85;;;7.10;90.80;;;;;;5037483;28;20137;-66
2020/12/15 00:30:18;;;;;;;10.80;2.78;;;7.00;91.40;;;;;;5029834;28;20048;-66
2020/12/15 00:32:48;;;;;;;6.25;2.97;;;7.00;91.60;;;;;;5030429;28;20128;-67
2020/12/15 00:35:14;;;;;;;7.57;3.47;;;6.90;92.20;;;;;;5032513;28;20056;-65
2020/12/15 00:37:40;;;;;;;14.38;3.50;;;6.80;92.70;;;;;;5032205;28;20524;-66
2020/12/15 00:40:07;;;;;;;10.60;3.35;;;6.80;93.10;;;;;;5029428;28;20382;-66
2020/12/15 00:42:33;;;;;;;11.55;2.92;;;6.70;93.20;;;;;;5029140;28;20465;-66
2020/12/15 00:45:00;;;;;;;6.35;3.03;;;6.70;93.60;;;;;;5028690;28;20088;-66
2020/12/15 00:47:26;;;;;;;8.02;3.63;;;6.70;94.20;;;;;;5026096;28;20148;-66
2020/12/15 00:49:54;;;;;;;7.22;3.00;;;6.70;94.10;;;;;;5027484;28;20048;-66
2020/12/15 00:52:24;;;;;;;7.05;3.53;;;6.60;94.40;;;;;;5023291;28;20581;-65
2020/12/15 00:54:51;;;;;;;7.60;3.00;;;6.50;94.70;;;;;;5025744;28;20520;-68
2020/12/15 00:57:18;;;;;;;7.85;3.30;;;6.60;94.90;;;;;;5028451;28;20077;-66
2020/12/15 00:59:44;;;;;;;8.88;3.63;;;6.60;94.90;;;;;;5026135;28;20136;-66
2020/12/15 01:02:11;;;;;;;9.27;3.13;;;6.60;95.10;;;;;;5025704;28;20091;-66
2020/12/15 01:04:38;;;;;;;8.07;3.72;;;6.60;95.30;;;;;;5028317;28;20045;-66
2020/12/15 01:07:04;;;;;;;6.53;3.92;;;6.50;95.60;;;;;;5028257;28;20131;-66
2020/12/15 01:09:30;;;;;;;8.55;3.85;;;6.60;95.70;;;;;;5028417;28;20514;-67
2020/12/15 01:11:57;;;;;;;6.97;3.67;;;6.50;95.90;;;;;;5028737;28;20137;-66
2020/12/15 01:14:23;;;;;;;8.93;4.13;;;6.50;96.10;;;;;;5026517;28;20121;-66
2020/12/15 01:16:49;;;;;;;8.57;3.90;;;6.60;96.10;;;;;;5027971;28;20072;-66
2020/12/15 01:19:15;;;;;;;7.53;4.32;;;6.50;96.20;;;;;;5026071;28;20045;-66
2020/12/15 01:21:42;;;;;;;7.78;4.10;;;6.50;96.40;;;;;;5028704;28;20451;-66
2020/12/15 01:24:08;;;;;;;9.60;4.78;;;6.40;96.70;;;;;;5028741;28;20475;-66
2020/12/15 01:26:34;;;;;;;8.55;4.45;;;6.40;96.80;;;;;;5028454;28;20150;-67
2020/12/15 01:29:01;;;;;;;9.02;4.05;;;6.40;97.10;;;;;;5027910;28;20045;-66
2020/12/15 01:31:28;;;;;;;9.13;4.47;;;6.40;97.20;;;;;;5028460;28;20125;-67
2020/12/15 01:33:55;;;;;;;8.45;4.80;;;6.40;97.30;;;;;;5026212;28;20064;-67
2020/12/15 01:36:32;;;;;;;9.40;5.05;;;6.40;97.40;;;;;;5028339;28;20144;-66
2020/12/15 01:38:59;;;;;;;8.52;4.45;;;6.40;97.50;;;;;;5024877;28;20096;-67
2020/12/15 01:41:28;;;;;;;7.45;4.13;;;6.40;97.60;;;;;;5028124;28;20056;-67
2020/12/15 01:44:00;;;;;;;9.63;4.78;;;6.40;97.60;;;;;;5027706;28;20045;-67
2020/12/15 01:46:29;;;;;;;9.75;4.35;;;6.50;97.60;;;;;;5027397;28;20404;-66
2020/12/15 01:48:56;;;;;;;10.52;5.00;;;6.40;97.80;;;;;;5027401;28;20054;-66
2020/12/15 01:51:27;;;;;;;9.23;4.90;;;6.40;97.90;;;;;;5028298;28;20068;-67
2020/12/15 01:53:55;;;;;;;9.52;4.30;;;6.50;97.90;;;;;;5027133;28;20053;-67
2020/12/15 01:56:22;;;;;;;7.90;4.68;;;6.40;97.90;;;;;;5031460;28;21956;-67
2020/12/15 01:58:56;;;;;;;11.90;5.18;;;6.40;98.00;;;;;;5031746;28;20049;-67
2020/12/15 02:01:24;;;;;;;11.43;5.10;;;6.50;98.10;;;;;;5029193;28;20057;-67
2020/12/15 02:03:51;;;;;;;9.23;5.07;;;6.50;98.00;;;;;;5024091;28;20128;-67
2020/12/15 02:06:26;;;;;;;9.07;4.97;;;6.60;97.90;;;;;;5032178;28;20125;-66
2020/12/15 02:08:53;;;;;;;10.45;4.80;;;6.60;97.90;;;;;;5031941;28;20132;-67
2020/12/15 02:11:20;;;;;;;11.15;5.32;;;6.60;97.90;;;;;;5031633;28;20057;-66
2020/12/15 02:13:46;;;;;;;7.72;3.83;;;6.60;98.00;;;;;;5032140;28;20347;-67
2020/12/15 02:16:13;;;;;;;11.95;5.72;;;6.70;97.90;;;;;;5031928;28;20049;-66
2020/12/15 02:18:40;;;;;;;9.90;4.75;;;6.60;98.00;;;;;;5031154;28;20083;-67
2020/12/15 02:21:08;;;;;;;8.05;4.47;;;6.60;98.00;;;;;;5030224;28;20049;-67
2020/12/15 02:23:35;;;;;;;9.60;4.82;;;6.70;97.90;;;;;;5031441;28;20049;-66
2020/12/15 02:26:09;;;;;;;10.18;5.25;;;6.70;98.00;;;;;;5031745;28;20216;-66
2020/12/15 02:28:36;;;;;;;8.93;4.30;;;6.70;98.20;;;;;;5024460;28;20136;-66
2020/12/15 02:31:03;;;;;;;11.05;4.57;;;6.80;98.20;;;;;;5031704;28;20045;-66
2020/12/15 02:33:33;;;;;;;11.73;4.82;;;6.80;98.40;;;;;;5031982;28;20144;-67
2020/12/15 02:35:59;;;;;;;8.73;4.38;;;6.80;98.40;;;;;;5031470;28;20077;-67
2020/12/15 02:38:26;;;;;;;9.77;4.38;;;6.80;98.50;;;;;;5030762;28;20060;-66
2020/12/15 02:40:53;;;;;;;7.75;4.05;;;6.90;98.50;;;;;;5031715;28;20080;-66
2020/12/15 02:43:19;;;;;;;11.00;5.40;;;6.90;98.60;;;;;;5030611;28;20045;-66
2020/12/15 02:45:45;;;;;;;10.95;4.75;;;6.90;98.60;;;;;;5031296;28;20142;-66
2020/12/15 02:48:13;;;;;;;8.30;4.53;;;7.00;98.70;;;;;;5030964;28;20511;-66
2020/12/15 02:50:39;;;;;;;10.30;4.75;;;7.00;98.80;;;;;;5024937;28;20065;-66
2020/12/15 02:53:06;;;;;;;11.48;5.68;;;7.10;98.90;;;;;;5030186;28;20127;-65
2020/12/15 02:55:32;;;;;;;12.25;4.32;;;7.10;98.60;;;;;;5030789;28;20475;-66
2020/12/15 02:57:58;;;;;;;10.27;4.03;;;7.10;98.70;;;;;;5028870;28;20590;-66
2020/12/15 03:00:25;;;;;;;11.18;3.88;;;7.20;98.70;;;;;;5030758;28;20508;-66
2020/12/15 03:02:51;;;;;;;8.43;3.90;;;7.20;98.70;;;;;;5027163;28;20079;-66
2020/12/15 03:05:18;;;;;;;15.60;4.60;;;7.20;98.80;;;;;;5027967;28;20505;-66
2020/12/15 03:07:44;;;;;;;9.07;3.65;;;7.20;98.90;;;;;;5028131;28;20088;-66
2020/12/15 03:10:11;;;;;;;13.73;4.90;;;7.30;98.90;;;;;;5029602;28;20047;-66
2020/12/15 03:12:38;;;;;;;9.15;4.35;;;7.30;98.90;;;;;;5028516;28;20304;-66
2020/12/15 03:15:05;;;;;;;9.02;3.90;;;7.30;99.00;;;;;;5031224;28;20053;-66
2020/12/15 03:17:31;;;;;;;8.52;4.22;;;7.30;98.90;;;;;;5028361;28;20065;-66
2020/12/15 03:19:58;;;;;;;8.38;4.10;;;7.40;98.80;;;;;;5028769;28;20505;-66
2020/12/15 03:22:24;;;;;;;9.63;3.88;;;7.40;99.00;;;;;;5031416;28;20076;-66
2020/12/15 03:24:50;;;;;;;10.27;4.43;;;7.30;99.10;;;;;;5029094;28;20137;-66
2020/12/15 03:27:17;;;;;;;9.65;3.47;;;7.30;99.10;;;;;;5029457;28;20117;-65
2020/12/15 03:29:43;;;;;;;12.30;4.38;;;7.30;99.40;;;;;;5030645;28;20057;-66
2020/12/15 03:32:09;;;;;;;8.95;3.50;;;7.30;99.40;;;;;;5028349;28;20061;-65
2020/12/15 03:34:36;;;;;;;8.98;3.47;;;7.30;99.30;;;;;;5030775;28;20056;-66
2020/12/15 03:37:03;;;;;;;8.35;3.85;;;7.40;99.30;;;;;;5028017;28;20081;-65
2020/12/15 03:39:29;;;;;;;8.38;3.38;;;7.40;99.20;;;;;;5029188;28;20046;-65
2020/12/15 03:41:55;;;;;;;5.93;3.10;;;7.50;99.30;;;;;;5030242;28;20079;-65
2020/12/15 03:44:23;;;;;;;7.97;3.50;;;7.40;99.10;;;;;;5029110;28;20080;-65
2020/12/15 03:46:49;;;;;;;7.43;3.60;;;7.50;99.10;;;;;;5028789;28;20077;-66
2020/12/15 03:49:16;;;;;;;8.07;3.70;;;7.50;99.10;;;;;;5026486;28;20117;-66
2020/12/15 03:51:42;;;;;;;6.00;3.05;;;7.60;99.20;;;;;;5028815;28;20055;-66
2020/12/15 03:54:08;;;;;;;7.70;2.75;;;7.70;99.10;;;;;;5029928;28;20137;-66
2020/12/15 03:56:35;;;;;;;7.68;3.08;;;7.70;99.10;;;;;;5028340;28;20128;-66
2020/12/15 03:59:01;;;;;;;9.43;2.92;;;7.70;99.20;;;;;;5029550;28;20489;-65
2020/12/15 04:01:28;;;;;;;6.93;2.92;;;7.60;99.30;;;;;;5028307;28;20056;-66
2020/12/15 04:03:54;;;;;;;7.28;3.25;;;7.60;99.20;;;;;;5029672;28;20104;-66
2020/12/15 04:06:21;;;;;;;8.05;3.85;;;7.70;99.00;;;;;;5028557;28;20072;-65
2020/12/15 04:08:47;;;;;;;6.45;3.35;;;7.70;99.00;;;;;;5028945;28;20052;-66
2020/12/15 04:18:42;;;;;;;8.52;3.55;;;7.70;98.90;;;;;;5026931;28;20036;-66
2020/12/15 04:21:10;;;;;;;7.97;3.20;;;7.60;99.10;;;;;;5029386;28;20072;-65
2020/12/15 04:23:38;;;;;;;8.45;3.35;;;7.60;99.10;;;;;;5030104;28;20056;-66
2020/12/15 04:26:04;;;;;;;9.07;4.03;;;7.60;99.10;;;;;;5011859;28;20479;-66
2020/12/15 04:28:31;;;;;;;7.30;4.15;;;7.60;99.10;;;;;;5028799;28;20132;-66
2020/12/15 04:30:57;;;;;;;11.65;4.07;;;7.60;99.00;;;;;;5029213;28;20068;-66
2020/12/15 04:33:23;;;;;;;8.90;3.83;;;7.60;99.00;;;;;;5027970;28;20540;-66
2020/12/15 04:35:50;;;;;;;7.38;4.05;;;7.60;99.20;;;;;;5029325;28;20149;-66
2020/12/15 04:38:16;;;;;;;8.57;4.03;;;7.60;99.20;;;;;;5027380;28;20049;-66
2020/12/15 04:40:43;;;;;;;8.93;4.03;;;7.60;99.20;;;;;;5028506;28;20049;-65
2020/12/15 04:43:10;;;;;;;8.68;3.90;;;7.60;99.10;;;;;;5028415;28;20041;-66
2020/12/15 04:45:38;;;;;;;10.05;4.15;;;7.70;99.20;;;;;;5029525;28;20127;-66
2020/12/15 04:48:09;;;;;;;11.73;3.72;;;7.70;99.10;;;;;;5026579;28;20056;-66
2020/12/15 04:50:38;;;;;;;7.68;3.30;;;7.80;99.10;;;;;;5029154;28;20475;-66
2020/12/15 04:53:12;;;;;;;9.20;3.65;;;7.80;99.30;;;;;;5027170;28;20145;-66
2020/12/15 04:55:40;;;;;;;8.35;3.22;;;7.80;98.90;;;;;;5027091;28;20072;-66
2020/12/15 04:58:07;;;;;;;7.85;3.90;;;7.80;99.10;;;;;;5026721;28;20042;-66
2020/12/15 05:00:34;;;;;;;6.40;2.72;;;7.80;99.10;;;;;;5026759;28;20148;-66
2020/12/15 05:03:02;;;;;;;8.95;3.58;;;7.80;99.20;;;;;;5026629;28;20514;-66
2020/12/15 05:05:31;;;;;;;10.75;3.95;;;7.80;99.20;;;;;;5028494;28;20049;-66
2020/12/15 05:08:02;;;;;;;6.63;3.03;;;7.80;99.30;;;;;;5024808;28;20038;-66
2020/12/15 05:10:29;;;;;;;7.60;4.03;;;7.80;99.50;;;;;;5027511;28;20126;-66
2020/12/15 05:12:56;;;;;;;7.30;4.03;;;7.80;99.70;;;;;;5017126;28;20073;-66
2020/12/15 05:15:22;;;;;;;10.60;4.78;;;7.80;99.40;;;;;;5028749;28;20148;-66
2020/12/15 05:17:48;;;;;;;10.05;4.40;;;7.80;99.30;;;;;;5026692;28;20059;-66
2020/12/15 05:20:17;;;;;;;9.65;3.90;;;7.80;99.30;;;;;;5026463;28;20100;-65
2020/12/15 05:22:44;;;;;;;12.02;5.05;;;7.80;99.30;;;;;;5027376;28;20140;-66
2020/12/15 05:25:21;;;;;;;9.93;3.85;;;7.80;99.40;;;;;;5028475;28;20136;-66
2020/12/15 05:27:47;;;;;;;7.13;3.78;;;7.80;99.50;;;;;;5024706;28;20088;-66
2020/12/15 05:30:13;;;;;;;8.93;3.35;;;7.80;99.40;;;;;;5028424;28;20116;-66
2020/12/15 05:32:50;;;;;;;11.55;3.78;;;7.90;99.40;;;;;;5028238;28;20076;-66
2020/12/15 05:35:26;;;;;;;7.18;3.83;;;7.90;99.30;;;;;;5028280;28;20068;-66
2020/12/15 05:37:54;;;;;;;6.25;3.30;;;7.90;99.20;;;;;;5026871;28;20056;-66
2020/12/15 05:40:21;;;;;;;8.40;3.60;;;7.90;99.20;;;;;;5028771;28;20140;-66
2020/12/15 05:42:55;;;;;;;7.72;3.30;;;8.00;99.20;;;;;;5026953;28;20107;-66
2020/12/15 05:45:22;;;;;;;7.88;3.60;;;8.00;99.20;;;;;;5027166;28;20046;-66
2020/12/15 05:47:49;;;;;;;9.30;2.90;;;8.00;99.30;;;;;;5023497;28;20069;-66
2020/12/15 05:50:25;;;;;;;8.48;3.38;;;8.00;99.30;;;;;;5028602;28;20092;-66
2020/12/15 05:52:59;;;;;;;9.18;3.00;;;8.00;99.10;;;;;;5027358;28;20049;-66
2020/12/15 05:55:26;;;;;;;6.07;3.15;;;8.00;99.10;;;;;;5020735;28;20077;-66
2020/12/15 05:57:54;;;;;;;10.23;3.85;;;8.00;99.20;;;;;;5023505;28;20513;-66
2020/12/15 06:00:25;;;;;;;6.53;3.22;;;8.00;99.20;;;;;;5026812;28;20056;-65
2020/12/15 06:03:05;;;;;;;8.82;3.53;;;8.00;99.30;;;;;;5028195;28;20123;-66
2020/12/15 06:05:34;;;;;;;5.72;2.88;;;8.10;99.10;;;;;;5015419;28;20057;-66
2020/12/15 06:08:02;;;;;;;10.75;2.75;;;8.00;99.10;;;;;;5026908;28;20111;-73
2020/12/15 06:10:29;;;;;;;7.93;3.30;;;8.00;99.00;;;;;;5028458;28;20248;-73
2020/12/15 06:12:58;;;;;;;8.10;3.35;;;8.00;99.10;;;;;;5026841;28;20133;-73
2020/12/15 06:15:25;;;;;;;9.85;3.35;;;8.10;99.10;;;;;;5024417;28;20148;-74
2020/12/15 06:17:53;;;;;;;12.32;3.15;;;8.10;99.00;;;;;;5024596;28;20049;-73
2020/12/15 06:20:20;;;;;;;14.35;3.80;;;8.00;99.00;;;;;;5027422;28;20045;-73
2020/12/15 06:22:47;;;;;;;6.40;3.10;;;8.10;99.00;;;;;;5023136;28;20569;-73
2020/12/15 06:25:28;;;;;;;7.25;2.67;;;8.00;98.90;;;;;;5027359;28;20048;-73
2020/12/15 06:28:08;;;;;;;7.65;2.78;;;8.00;99.00;;;;;;5026388;28;20144;-73
2020/12/15 06:30:44;;;;;;;8.80;3.10;;;8.00;99.00;;;;;;5026742;28;20073;-73
2020/12/15 06:33:13;;;;;;;10.25;4.13;;;8.00;98.90;;;;;;5024579;28;20076;-72
2020/12/15 06:35:44;;;;;;;7.40;3.00;;;8.10;99.00;;;;;;5008610;28;20065;-72
2020/12/15 06:38:18;;;;;;;7.20;3.45;;;8.00;99.00;;;;;;5016618;28;20418;-74
2020/12/15 06:40:46;;;;;;;8.02;3.50;;;8.00;99.10;;;;;;5028689;28;20550;-73
2020/12/15 06:43:24;;;;;;;8.35;4.00;;;8.00;98.80;;;;;;5024289;28;20091;-73
2020/12/15 06:45:50;;;;;;;7.97;3.53;;;8.00;98.80;;;;;;5031535;28;20081;-73
2020/12/15 06:48:22;;;;;;;12.35;3.80;;;8.00;98.80;;;;;;5028368;28;20132;-73
2020/12/15 06:50:48;;;;;;;9.23;3.20;;;8.00;98.60;;;;;;5030373;28;20038;-73
2020/12/15 06:53:19;;;;;;;5.78;2.72;;;8.00;98.70;;;;;;5031073;28;20092;-73
2020/12/15 06:55:46;;;;;;;7.78;3.90;;;8.00;98.70;;;;;;5030928;28;20136;-73
2020/12/15 06:58:22;;;;;;;10.32;3.40;;;8.00;98.60;;;;;;5029399;28;20069;-72
2020/12/15 07:00:49;;;;;;;7.80;4.18;;;8.00;98.50;;;;;;5027775;28;20096;-72
2020/12/15 07:03:19;;;;;;;9.02;4.72;;;8.00;98.60;;;;;;5031190;28;20064;-72
2020/12/15 07:05:46;;;;;;;8.45;4.05;;;8.10;98.80;;;;;;5029336;28;20132;-73
2020/12/15 07:08:13;;;;;;;8.75;4.65;;;8.00;98.40;;;;;;5027203;28;20087;-72
2020/12/15 07:10:42;;;;;;;7.97;4.40;;;8.00;98.40;;;;;;5024747;28;20104;-72
2020/12/15 07:13:12;;;;;;;9.20;4.30;;;8.00;98.40;;;;;;5029713;28;20498;-72
2020/12/15 07:15:38;;;;;;;9.10;4.22;;;8.00;98.50;;;;;;5023409;28;20053;-72
2020/12/15 07:18:06;;;;;;;10.25;4.63;;;8.00;98.30;;;;;;5027862;28;20049;-72
2020/12/15 07:20:32;;;;;;;7.80;3.38;;;8.00;98.30;;;;;;5030157;28;20388;-72
2020/12/15 07:23:00;;;;;;;5.20;3.08;;;8.00;98.20;;;;;;5030625;28;20126;-72
2020/12/15 07:25:26;;;;;;;7.05;2.60;;;8.00;98.00;;;;;;5037977;28;20128;-72
2020/12/15 07:27:53;;;;;;;8.45;3.53;;;8.00;98.00;;;;;;5023668;28;20132;-74
2020/12/15 07:30:21;;;;;;;10.45;4.15;;;8.10;97.80;;;;;;5028000;28;20449;-73
2020/12/15 07:32:48;;;;;;;8.02;3.25;;;8.10;97.70;;;;;;5027669;28;20143;-73
2020/12/15 07:35:19;;;;;;;9.00;3.78;;;8.10;97.70;;;;;;5023061;28;20049;-73
2020/12/15 07:37:48;;;;;;;8.98;4.75;;;8.00;97.80;;;;;;5022767;28;20072;-73
2020/12/15 07:40:17;;;;;;;8.07;3.55;;;8.00;97.80;;;;;;5028357;28;20515;-73
2020/12/15 07:42:57;;;;;;;7.38;3.40;;;8.10;97.60;;;;;;5017705;28;20050;-73
2020/12/15 07:45:25;;;;;;;7.80;3.40;;;8.10;97.50;;;;;;5023159;28;20104;-73
2020/12/15 07:47:52;;;;;;;7.07;3.38;;;8.00;97.30;;;;;;5018151;28;20046;-73
2020/12/15 07:50:27;;;;;;;6.63;3.92;;;8.00;97.40;;;;;;5024178;28;20045;-73
2020/12/15 07:53:13;;;;;;;6.55;3.33;;;8.00;97.50;;;;;;5024848;28;20112;-73
2020/12/15 07:55:41;;;;;;;7.20;3.05;;;8.00;97.50;;;;;;5031183;28;20085;-73
2020/12/15 07:58:15;;;;;;;7.28;3.17;;;8.10;97.40;;;;;;5020120;28;20203;-73
2020/12/15 08:00:42;;;;;;;9.52;3.22;;;8.00;97.60;;;;;;5018464;28;20064;-72
2020/12/15 08:03:09;;;;;;;5.57;2.72;;;8.00;97.40;;;;;;5019432;28;20211;-72
2020/12/15 08:05:36;;;;;;;7.93;2.63;;;8.00;97.40;;;;;;5019451;28;20095;-72
2020/12/15 08:08:02;;;;;;;6.18;3.15;;;8.10;97.20;;;;;;5026053;28;20067;-72
2020/12/15 08:10:31;;;;;;;5.53;2.80;;;8.10;97.20;;;;;;5027702;28;20513;-72
2020/12/15 08:13:03;;;;;;;7.07;2.72;;;8.10;97.30;;;;;;5027478;28;20115;-72
2020/12/15 08:15:36;;;;;;;5.50;2.80;;;8.20;97.40;;;;;;5023259;28;20043;-72
2020/12/15 08:18:06;;;;;;;;;;;8.20;97.30;;;;;;5014878;28;20466;-72
2020/12/15 08:20:34;;;;;;;4.78;2.53;;;8.20;97.20;;;;;;5016935;28;20293;-72
2020/12/15 08:23:11;;;;;;;4.90;2.25;;;8.30;97.10;;;;;;5019892;28;20414;-72
2020/12/15 08:25:43;;;;;;;7.43;2.30;;;8.40;96.80;;;;;;5026793;28;20175;-73
2020/12/15 08:28:11;;;;;;;5.97;1.98;;;8.50;96.70;;;;;;5018868;28;20065;-72
2020/12/15 08:30:40;;;;;;;5.07;2.80;;;8.60;96.60;;;;;;5017276;28;20053;-73
2020/12/15 08:33:06;;;;;;;4.72;2.47;;;8.50;96.80;;;;;;5009827;28;20464;-73
2020/12/15 08:35:33;;;;;;;9.82;3.00;;;8.60;96.70;;;;;;5021799;28;20212;-73
2020/12/15 08:38:03;;;;;;;5.85;2.60;;;8.60;96.50;;;;;;5014585;28;20049;-73
2020/12/15 08:40:29;;;;;;;9.55;2.50;;;8.60;96.50;;;;;;5024135;28;20126;-73
2020/12/15 08:43:03;;;;;;;5.95;2.50;;;8.60;96.40;;;;;;5023712;28;20457;-73
2020/12/15 08:45:31;;;;;;;6.82;2.53;;;8.60;96.40;;;;;;5023003;28;20049;-73
2020/12/15 08:47:59;;;;;;;6.45;2.63;;;8.60;96.50;;;;;;5024953;28;20073;-73
2020/12/15 08:50:32;;;;;;;6.22;2.42;;;8.60;96.50;;;;;;5022772;28;20045;-73
2020/12/15 08:53:15;;;;;;;6.90;2.60;;;8.60;96.50;;;;;;5030243;28;20087;-73
2020/12/15 08:55:46;;;;;;;7.03;2.47;;;8.60;96.60;;;;;;5015129;28;20057;-73
2020/12/15 08:58:13;;;;;;;6.53;2.83;;;8.60;96.50;;;;;;5015687;28;20236;-73
2020/12/15 09:00:44;;;;;;;5.38;2.40;;;8.60;96.70;;;;;;5021104;28;20045;-73
2020/12/15 09:03:18;;;;;;;4.97;2.45;;;8.60;96.70;;;;;;5016716;28;20049;-73
2020/12/15 09:05:48;;;;;;;;;;;8.60;96.50;;;;;;5020889;28;20140;-73
2020/12/15 09:08:14;;;;;;;6.20;3.10;;;8.60;96.50;;;;;;5022847;28;19929;-74
2020/12/15 09:10:40;;;;;;;5.72;2.35;;;8.60;96.40;;;;;;5024378;28;20150;-73
2020/12/15 09:13:07;;;;;;;3.80;2.25;;;8.60;96.40;;;;;;5020273;28;20115;-73
2020/12/15 09:15:45;;;;;;;5.55;2.65;;;8.70;96.50;;;;;;5018440;28;20073;-73
2020/12/15 09:18:13;;;;;;;5.18;2.95;;;8.70;96.30;;;;;;5022917;28;20148;-74
2020/12/15 09:20:40;;;;;;;6.10;2.80;;;8.70;96.40;;;;;;5015931;28;20108;-73
2020/12/15 09:23:07;;;;;;;7.90;3.00;;;8.70;96.40;;;;;;5024523;28;20524;-73
2020/12/15 09:25:34;;;;;;;5.68;2.42;;;8.70;96.50;;;;;;5022452;28;20069;-74
2020/12/15 09:28:00;;;;;;;7.47;2.70;;;8.60;96.60;;;;;;5022917;28;20063;-74
2020/12/15 09:30:27;;;;;;;9.27;3.45;;;8.60;97.00;;;;;;5025187;28;20771;-74
2020/12/15 09:32:55;;;;;;;10.00;3.22;;;8.70;97.20;;;;;;5023643;28;20041;-73
2020/12/15 09:35:21;;;;;;;5.47;2.78;;;8.70;97.60;;;;;;5025438;28;20073;-74
2020/12/15 09:37:47;;;;;;;12.00;3.08;;;8.70;97.60;;;;;;5015052;28;20045;-74
2020/12/15 09:40:14;;;;;;;7.57;3.47;;;8.70;97.50;;;;;;5021717;28;20548;-73
2020/12/15 09:42:44;;;;;;;7.85;3.17;;;8.80;97.50;;;;;;5023382;28;20141;-73
2020/12/15 09:45:11;;;;;;;6.75;3.20;;;8.80;97.40;;;;;;5017964;28;20151;-73
2020/12/15 09:47:41;;;;;;;7.22;3.33;;;8.90;97.30;;;;;;5023124;28;20107;-73
2020/12/15 09:50:09;;;;;;;6.32;3.35;;;8.90;97.30;;;;;;5016823;28;20080;-73
2020/12/15 09:52:36;;;;;;;6.00;3.03;;;8.90;97.50;;;;;;5017012;28;20527;-73
2020/12/15 09:55:06;;;;;;;6.82;2.97;;;8.90;97.40;;;;;;5025393;28;20061;-73
2020/12/15 09:57:36;;;;;;;7.50;3.25;;;8.80;97.40;;;;;;5021118;28;20057;-73
2020/12/15 10:00:04;;;;;;;9.23;3.83;;;8.80;97.70;;;;;;5022245;28;20057;-73
2020/12/15 10:02:31;;;;;;;8.73;3.75;;;8.80;97.80;;;;;;5026843;28;20122;-73
2020/12/15 10:04:57;;;;;;;8.38;3.63;;;8.80;98.20;;;;;;5026059;28;20100;-73
2020/12/15 10:07:23;;;;;;;7.55;3.28;;;8.80;98.20;;;;;;5018837;28;20442;-73
2020/12/15 10:09:54;;;;;;;6.82;3.45;;;8.80;98.10;;;;;;5021903;28;20042;-73
2020/12/15 10:12:21;;;;;;;10.18;3.60;;;8.80;98.20;;;;;;5016796;28;20485;-73
2020/12/15 10:14:47;;;;;;;9.15;3.22;;;8.80;98.20;;;;;;5027457;28;20077;-73
2020/12/15 10:17:14;;;;;;;8.02;3.00;;;8.80;98.30;;;;;;5029661;28;20136;-73
2020/12/15 10:19:41;;;;;;;8.82;3.95;;;8.80;98.50;;;;;;5024480;28;20541;-73
2020/12/15 10:22:07;;;;;;;7.97;3.15;;;8.80;98.50;;;;;;5030028;28;20539;-73
2020/12/15 10:24:33;;;;;;;8.43;3.53;;;8.90;98.20;;;;;;5028473;28;20136;-73
2020/12/15 10:27:00;;;;;;;7.32;3.25;;;8.80;98.30;;;;;;5022293;28;20083;-73
2020/12/15 10:29:29;;;;;;;7.55;3.92;;;8.80;98.40;;;;;;5023670;28;20125;-73
2020/12/15 10:31:57;;;;;;;10.13;3.75;;;8.80;98.30;;;;;;5025975;28;20076;-73
2020/12/15 10:34:23;;;;;;;7.50;3.55;;;8.80;98.40;;;;;;5023165;28;20080;-73
2020/12/15 10:36:49;;;;;;;6.72;3.65;;;8.80;98.40;;;;;;5028514;28;20523;-73
2020/12/15 10:39:17;;;;;;;8.18;3.35;;;8.80;98.30;;;;;;5030313;28;20077;-73
2020/12/15 10:41:43;;;;;;;6.63;3.95;;;8.80;98.30;;;;;;5023757;28;20144;-73
2020/12/15 10:44:14;;;;;;;7.07;3.22;;;8.80;98.60;;;;;;5024808;28;20056;-73
2020/12/15 10:46:42;;;;;;;6.88;3.20;;;8.80;98.70;;;;;;5020945;28;20064;-73
2020/12/15 10:49:09;;;;;;;7.68;3.00;;;8.80;98.50;;;;;;5022254;28;20107;-73
2020/12/15 10:51:37;;;;;;;8.93;3.97;;;8.80;98.30;;;;;;5026024;28;20585;-73
2020/12/15 10:54:07;;;;;;;9.73;3.35;;;8.80;98.50;;;;;;5022091;28;20500;-73
2020/12/15 10:56:33;;;;;;;7.68;3.50;;;8.80;98.60;;;;;;5027911;28;20117;-73
2020/12/15 10:59:02;;;;;;;8.98;4.00;;;8.80;98.50;;;;;;5028320;28;20049;-73
2020/12/15 11:01:28;;;;;;;12.18;3.83;;;8.80;98.60;;;;;;5022791;28;20060;-73
2020/12/15 11:03:56;;;;;;;8.68;3.25;;;8.80;98.60;;;;;;5017505;28;20171;-73
2020/12/15 11:06:25;;;;;;;6.13;3.25;;;8.90;98.60;;;;;;5023413;28;20136;-73
2020/12/15 11:08:52;;;;;;;8.82;4.45;;;8.90;98.70;;;;;;5023072;28;20120;-73
2020/12/15 11:11:18;;;;;;;7.85;3.38;;;8.90;98.70;;;;;;5027970;28;20570;-73
2020/12/15 11:13:46;;;;;;;10.50;4.15;;;8.90;98.70;;;;;;5024282;28;20054;-73
2020/12/15 11:16:12;;;;;;;10.38;4.43;;;8.90;98.80;;;;;;5025015;28;20130;-73
2020/12/15 11:18:40;;;;;;;9.30;3.63;;;8.90;99.10;;;;;;5019522;28;20123;-73
2020/12/15 11:21:06;;;;;;;8.48;3.55;;;8.90;99.20;;;;;;5021973;28;20141;-73
2020/12/15 11:23:32;;;;;;;8.48;3.53;;;8.90;99.30;;;;;;5020921;28;20126;-73
2020/12/15 11:26:14;;;;;;;9.30;3.88;;;8.90;99.30;;;;;;5023716;28;20416;-73
2020/12/15 11:28:41;;;;;;;5.95;3.47;;;8.90;99.50;;;;;;5020759;28;20548;-74
2020/12/15 11:31:08;;;;;;;8.57;4.15;;;8.90;99.30;;;;;;5026113;28;20558;-73
2020/12/15 11:33:34;;;;;;;10.55;3.97;;;8.90;99.30;;;;;;5028497;28;20057;-75
2020/12/15 11:36:01;;;;;;;8.73;4.43;;;8.90;99.20;;;;;;5026327;28;20045;-74
2020/12/15 11:38:27;;;;;;;10.82;4.47;;;8.90;99.30;;;;;;5017251;28;20124;-74
2020/12/15 11:40:54;;;;;;;7.45;3.85;;;8.90;99.30;;;;;;5027279;28;20053;-74
2020/12/15 11:43:20;;;;;;;6.30;3.67;;;9.00;99.20;;;;;;5027100;28;20516;-74
2020/12/15 11:45:47;;;;;;;9.15;5.05;;;8.90;99.20;;;;;;5023769;28;20119;-74
2020/12/15 11:48:13;;;;;;;8.02;3.60;;;8.90;99.50;;;;;;5023252;28;20129;-75
2020/12/15 11:50:39;;;;;;;8.30;3.90;;;9.00;99.30;;;;;;5015394;28;20050;-74
2020/12/15 11:53:06;;;;;;;9.05;4.72;;;9.00;99.30;;;;;;5024181;28;20063;-74
2020/12/15 11:55:33;;;;;;;11.57;4.88;;;8.90;99.30;;;;;;5017500;28;20065;-74
2020/12/15 11:57:59;;;;;;;9.90;4.45;;;8.90;99.30;;;;;;5029094;28;20131;-74
2020/12/15 12:00:25;;;;;;;10.32;4.85;;;8.90;99.40;;;;;;5024258;28;20045;-75
2020/12/15 12:02:51;;;;;;;6.88;3.70;;;9.00;99.40;;;;;;5023623;28;20073;-74
2020/12/15 12:05:20;;;;;;;9.75;4.40;;;8.90;99.50;;;;;;5028246;28;20069;-74
2020/12/15 12:07:49;;;;;;;8.38;4.55;;;8.90;99.60;;;;;;5021609;28;20128;-74
2020/12/15 12:10:15;;;;;;;8.90;5.00;;;8.90;99.60;;;;;;5027290;28;20136;-75
2020/12/15 12:12:42;;;;;;;13.05;5.53;;;9.00;99.70;;;;;;5023226;28;20132;-74
2020/12/15 12:15:08;;;;;;;8.82;5.05;;;9.00;99.60;;;;;;5028917;28;20085;-74
2020/12/15 12:17:35;;;;;;;14.85;6.40;;;9.00;99.60;;;;;;5026295;28;20064;-74
2020/12/15 12:20:03;;;;;;;9.23;5.05;;;9.00;99.60;;;;;;5023411;28;20095;-74
2020/12/15 12:22:30;;;;;;;9.65;4.97;;;9.00;99.50;;;;;;5026774;28;20124;-74
2020/12/15 12:24:56;;;;;;;9.48;5.82;;;9.10;99.50;;;;;;5027428;28;20143;-73
2020/12/15 12:27:23;;;;;;;11.88;6.07;;;9.10;99.50;;;;;;5023383;28;20055;-73
2020/12/15 12:29:49;;;;;;;10.88;6.03;;;9.00;99.50;;;;;;5021662;28;20077;-73
2020/12/15 12:32:15;;;;;;;12.45;6.63;;;9.10;99.60;;;;;;5026056;28;20091;-74
2020/12/15 12:34:42;;;;;;;14.77;7.93;;;9.10;99.50;;;;;;5024641;28;20045;-74
2020/12/15 12:37:11;;;;;;;10.63;4.88;;;9.20;99.40;;;;;;5023701;28;20136;-74
2020/12/15 12:39:38;;;;;;;10.75;5.03;;;9.20;99.40;;;;;;5027150;28;20103;-74
2020/12/15 12:42:04;;;;;;;11.75;6.50;;;9.20;99.20;;;;;;5026017;28;20128;-74
2020/12/15 12:44:32;;;;;;;10.18;5.50;;;9.20;99.20;;;;;;5025689;28;20045;-74
2020/12/15 12:46:59;;;;;;;12.15;6.80;;;9.20;99.40;;;;;;5022224;28;20395;-74
2020/12/15 12:49:26;;;;;;;11.98;6.75;;;9.10;99.50;;;;;;5023332;28;20053;-73
2020/12/15 12:51:52;;;;;;;9.10;5.43;;;9.10;99.60;;;;;;5023128;28;20513;-73
2020/12/15 12:54:20;;;;;;;12.45;6.38;;;9.20;99.50;;;;;;5025851;28;20052;-74
2020/12/15 12:56:46;;;;;;;10.45;6.15;;;9.30;99.40;;;;;;5018940;28;20046;-74
2020/12/15 12:59:14;;;;;;;9.32;4.90;;;9.30;99.30;;;;;;5023842;28;20152;-74
2020/12/15 13:01:41;;;;;;;11.00;6.18;;;9.30;99.70;;;;;;5017307;28;20079;-74
2020/12/15 13:04:07;;;;;;;8.75;4.43;;;9.30;99.30;;;;;;5024940;28;20049;-74
2020/12/15 13:06:34;;;;;;;10.40;4.90;;;9.40;99.20;;;;;;5024233;28;20160;-74